Flight Track Log - Related Links

Times and Time Zones

All times are in EDT time to prevent confusion due to time zone crossing. See the UAL4457 flight status page for this flight to view local times or setup timezone preferences in your user account.

Time Position Orientation Groundspeed Altitude Reporting Facility
EDT Latitude Longitude Course Direction KTS MPH feet Rate Location/Type
Fri 05:39:46 PM 38.1017 -84.6317 305° West 211 243 6,200  Level Indianapolis Center
Fri 05:40:48 PM 38.0753 -84.7122 247° West 246 283 8,000 2,081 Climbing Indianapolis Center
Fri 05:41:50 PM 38.0381 -84.8014 242° Southwest 281 323 10,500 1,548 Climbing Indianapolis Center
Fri 05:42:52 PM 37.9931 -84.9189 244° Southwest 310 357 11,200 1,065 Climbing Indianapolis Center
Fri 05:43:54 PM 37.9411 -85.0378 241° Southwest 358 412 12,700 1,403 Climbing Indianapolis Center
Fri 05:44:00 PM 37.6168 -85.2599 231° Southwest  Level Estimated
Fri 05:44:56 PM 37.8931 -85.1542 242° Southwest 371 427 14,100  Level Indianapolis Center
Fri 05:45:58 PM 37.8419 -85.2794 243° Southwest 381 438 15,300 1,113 Climbing Indianapolis Center
Fri 05:47:00 PM 37.7953 -85.3931 243° Southwest 381 438 16,400 1,306 Climbing Indianapolis Center
Fri 05:48:02 PM 37.7378 -85.5336 243° Southwest 385 443 18,000 1,344 Climbing Indianapolis Center
Fri 05:49:05 PM 37.6919 -85.6400 241° Southwest 384 442 19,200 1,392 Climbing Indianapolis Center
Fri 05:50:07 PM 37.6433 -85.7597 243° Southwest 382 440 20,900 1,839 Climbing Indianapolis Center
Fri 05:51:09 PM 37.5836 -85.8986 242° Southwest 374 430 23,000 1,597 Climbing Indianapolis Center
Fri 05:52:11 PM 37.5372 -86.0122 243° Southwest 374 430 24,200 1,403 Climbing Indianapolis Center
Fri 05:53:13 PM 37.4872 -86.1300 242° Southwest 379 436 25,900 1,645 Climbing Indianapolis Center
Fri 05:54:15 PM 37.4381 -86.2444 242° Southwest 372 428 27,600 1,742 Climbing Indianapolis Center
Fri 05:55:17 PM 37.3894 -86.3594 242° Southwest 371 427 29,500 1,839 Climbing Indianapolis Center
Fri 05:56:19 PM 37.3417 -86.4717 242° Southwest 365 420 31,400 1,887 Climbing Indianapolis Center
Fri 05:57:21 PM 37.2864 -86.5997 242° Southwest 358 412 33,400 1,258 Climbing Indianapolis Center
Fri 05:58:23 PM 37.2372 -86.7103 241° Southwest 358 412 34,000 339 Climbing Indianapolis Center
Fri 05:59:25 PM 37.1550 -86.8128 225° Southwest 403 464 34,100 526 Climbing Indianapolis Center
Fri 06:00:17 PM 37.0878 -86.9011 226° Southwest 415 478 35,000 964 Climbing Memphis Center
Fri 06:01:17 PM 37.0011 -87.0061 224° Southwest 434 499 35,900 500 Climbing Memphis Center
Fri 06:02:17 PM 36.9083 -87.1189 224° Southwest 434 499 36,000 50 Climbing Memphis Center
Fri 06:03:17 PM 36.8194 -87.2314 225° Southwest 441 507 36,000  Level Memphis Center
Fri 06:04:17 PM 36.7306 -87.3383 224° Southwest 447 514 36,000  Level Memphis Center
Fri 06:05:17 PM 36.6456 -87.4450 225° Southwest 447 514 36,000  Level Memphis Center
Fri 06:06:17 PM 36.5561 -87.5514 224° Southwest 447 514 36,000  Level Memphis Center
Fri 06:07:17 PM 36.4669 -87.6553 223° Southwest 447 514 36,000  Level Memphis Center
Fri 06:08:17 PM 36.3817 -87.7611 225° Southwest 447 514 36,000  Level Memphis Center
Fri 06:09:17 PM 36.2942 -87.8669 224° Southwest 447 514 36,000  Level Memphis Center
Fri 06:10:17 PM 36.2086 -87.9700 224° Southwest 442 509 36,000  Level Memphis Center
Fri 06:11:17 PM 36.1189 -88.0753 223° Southwest 442 509 36,000  Level Memphis Center
Fri 06:12:17 PM 36.0308 -88.1753 223° Southwest 447 514 36,000  Level Memphis Center
Fri 06:13:17 PM 35.9450 -88.2775 224° Southwest 440 506 36,000  Level Memphis Center
Fri 06:14:17 PM 35.8550 -88.3822 223° Southwest 440 506 36,000  Level Memphis Center
Fri 06:15:17 PM 35.7669 -88.4867 224° Southwest 440 506 36,000  Level Memphis Center
Fri 06:16:17 PM 35.6789 -88.5883 223° Southwest 440 506 36,000  Level Memphis Center
Fri 06:17:17 PM 35.5906 -88.6925 224° Southwest 440 506 36,000  Level Memphis Center
Fri 06:18:17 PM 35.5022 -88.7961 224° Southwest 440 506 36,000  Level Memphis Center
Fri 06:19:17 PM 35.4181 -88.8972 224° Southwest 434 499 36,000  Level Memphis Center
Fri 06:20:17 PM 35.3294 -88.9981 223° Southwest 434 499 36,000  Level Memphis Center
Fri 06:21:17 PM 35.2431 -89.1011 224° Southwest 434 499 36,000  Level Memphis Center
Fri 06:22:17 PM 35.1542 -89.2014 223° Southwest 434 499 36,000  Level Memphis Center
Fri 06:23:17 PM 35.0653 -89.3017 223° Southwest 439 505 36,000  Level Memphis Center
Fri 06:24:17 PM 34.9869 -89.3914 223° Southwest 439 505 36,000  Level Memphis Center
Fri 06:25:17 PM 34.8958 -89.4936 223° Southwest 439 505 36,000  Level Memphis Center
Fri 06:26:17 PM 34.8047 -89.5883 220° Southwest 439 505 36,000  Level Memphis Center
Fri 06:27:18 PM 34.6989 -89.7081 223° Southwest 451 519 36,000  Level Memphis Center
Fri 06:28:28 PM 34.5972 -89.8347 226° Southwest 447 514 36,000  Level Memphis Center
Fri 06:29:29 PM 34.5081 -89.9386 224° Southwest 441 507 36,000  Level Memphis Center
Fri 06:30:29 PM 34.4186 -90.0400 223° Southwest 446 513 36,000  Level Memphis Center
Fri 06:31:29 PM 34.3292 -90.1408 223° Southwest 451 519 36,000  Level Memphis Center
Fri 06:32:29 PM 34.2394 -90.2417 223° Southwest 451 519 36,000  Level Memphis Center
Fri 06:33:29 PM 34.1478 -90.3447 223° Southwest 451 519 36,000  Level Memphis Center
Fri 06:34:29 PM 34.0578 -90.4425 222° Southwest 444 511 36,000  Level Memphis Center
Fri 06:35:29 PM 33.9658 -90.5450 223° Southwest 449 517 36,000  Level Memphis Center
Fri 06:36:29 PM 33.8761 -90.6475 223° Southwest 449 517 36,000  Level Memphis Center
Fri 06:37:30 PM 33.7944 -90.7347 222° Southwest 441 507 36,000  Level Memphis Center
Fri 06:38:29 PM 33.7022 -90.8367 223° Southwest 441 507 36,000  Level Memphis Center
Fri 06:39:29 PM 33.5975 -90.9508 222° Southwest 455 524 36,000  Level Memphis Center
Fri 06:40:29 PM 33.5072 -91.0497 222° Southwest 455 524 36,000  Level Memphis Center
Fri 06:41:29 PM 33.4147 -91.1486 222° Southwest 455 524 36,000  Level Memphis Center
Fri 06:42:29 PM 33.3200 -91.2472 221° Southwest 455 524 36,000  Level Memphis Center
Fri 06:43:29 PM 33.2275 -91.3506 223° Southwest 455 524 36,000  Level Memphis Center
Fri 06:44:29 PM 33.1306 -91.4536 222° Southwest 450 518 36,000  Level Memphis Center
Fri 06:46:01 PM 33.0014 -91.5953 223° Southwest 449 517 36,000  Level Fort Worth Center
Fri 06:47:00 PM 32.9078 -91.6956 222° Southwest 454 522 36,000  Level Fort Worth Center
Fri 06:48:00 PM 32.8122 -91.7956 221° Southwest 459 528 36,000  Level Fort Worth Center
Fri 06:49:01 PM 32.7286 -91.8847 222° Southwest 453 521 36,000  Level Fort Worth Center
Fri 06:50:56 PM 32.5372 -92.0853 221° Southwest 459 528 36,000  Level Houston Center
Fri 06:51:58 PM 32.4428 -92.1844 222° Southwest 457 526 36,000  Level Houston Center
Fri 06:53:00 PM 32.3283 -92.3036 221° Southwest 458 527 36,000  Level Houston Center
Fri 06:54:02 PM 32.2342 -92.4028 222° Southwest 455 524 36,000  Level Houston Center
Fri 06:55:05 PM 32.1403 -92.4989 221° Southwest 450 518 36,000  Level Houston Center
Fri 06:56:07 PM 32.0489 -92.5978 223° Southwest 448 516 36,000  Level Houston Center
Fri 06:57:09 PM 31.9542 -92.6917 220° Southwest 447 514 36,000  Level Houston Center
Fri 06:58:11 PM 31.8600 -92.7850 220° Southwest 445 512 36,000  Level Houston Center
Fri 06:59:13 PM 31.7458 -92.8969 220° Southwest 447 514 36,000 -48 Level Houston Center
Fri 07:00:15 PM 31.6494 -92.9869 218° Southwest 446 513 35,900  Descending Houston Center
Fri 07:01:17 PM 31.5544 -93.0806 220° Southwest 447 514 36,000 48 Climbing Houston Center
Fri 07:02:19 PM 31.4572 -93.1708 218° Southwest 447 514 36,000  Level Houston Center
Fri 07:03:21 PM 31.3622 -93.2633 220° Southwest 446 513 36,000 -48 Level Houston Center
Fri 07:04:23 PM 31.2669 -93.3578 220° Southwest 448 516 35,900 -528 Descending Houston Center
Fri 07:05:26 PM 31.1503 -93.4650 218° Southwest 447 514 34,900 -960 Descending Houston Center
Fri 07:06:28 PM 31.0547 -93.5586 220° Southwest 448 516 33,900 -968 Descending Houston Center
Fri 07:07:30 PM 30.9564 -93.6506 219° Southwest 454 522 32,900 -1,306 Descending Houston Center
Fri 07:08:32 PM 30.8606 -93.7411 219° Southwest 448 516 31,200 -2,419 Descending Houston Center
Fri 07:09:34 PM 30.7650 -93.8339 220° Southwest 450 518 27,900 -3,581 Descending Houston Center
Fri 07:10:36 PM 30.6478 -93.9431 219° Southwest 452 520 23,800 -3,339 Descending Houston Center
Fri 07:11:38 PM 30.5575 -94.0272 219° Southwest 426 490 21,000 -2,516 Descending Houston Center
Fri 07:12:40 PM 30.4719 -94.1075 219° Southwest 403 464 18,600 -2,468 Descending Houston Center
Fri 07:13:42 PM 30.3914 -94.1825 219° Southwest 380 437 15,900 -2,959 Descending Houston Center
Fri 07:13:53 PM 30.3633 -94.2069 217° Southwest 372 428 15,000 -3,333 Descending Houston Center
Fri 07:14:18 PM 30.3328 -94.2378 221° Southwest 369 425 13,900 -2,353 Descending Houston Center
Fri 07:14:44 PM 30.2975 -94.2700 218° Southwest 364 419 13,000 -1,770 Descending Houston Center
Fri 07:15:19 PM 30.2614 -94.3222 231° Southwest 354 407 12,100 -1,238 Descending Houston Center
Fri 07:15:47 PM 30.2511 -94.3675 255° West 365 420 11,700 -1,258 Descending Houston Center
Fri 07:16:21 PM 30.2306 -94.4353 251° West 354 407 10,800 -1,452 Descending Houston Center
Fri 07:16:49 PM 30.2203 -94.4756 254° West 356 410 10,200 -787 Descending Houston Center
Fri 07:17:22 PM 30.2014 -94.5456 253° West 348 400 10,000 -194 Descending Houston Center
Fri 07:17:51 PM 30.1942 -94.5725 253° West 347 399 10,000  Level Houston Center
Fri 07:18:18 PM 30.1733 -94.6458 252° West 357 411 10,000  Level Houston Center
Fri 07:18:53 PM 30.1586 -94.7025 253° West 352 405 10,000  Level Houston Center
Fri 07:19:19 PM 30.1436 -94.7536 251° West 347 399 10,000  Level Houston Center
Fri 07:19:55 PM 30.1300 -94.8092 254° West 351 404 10,000  Level Houston Center
Fri 07:20:21 PM 30.1158 -94.8586 252° West 351 404 10,000  Level Houston Center
Fri 07:20:57 PM 30.1058 -94.9161 259° West 346 398 10,000  Level Houston Center
Fri 07:21:28 PM 30.1044 -94.9808 269° West 334 384 10,000 -290 Level Houston Center
Fri 07:21:59 PM 30.1064 -95.0206 273° West 332 382 9,700 -1,418 Descending Houston Center
Fri 07:22:23 PM 30.1064 -95.0700 270° West 287 330 8,700 -1,839 Descending Houston Center
Fri 07:23:01 PM 30.1078 -95.1128 272° West 301 346 7,800 -1,935 Descending Houston Center
Fri 07:23:25 PM 30.1047 -95.1644 266° West 294 338 6,700 -1,742 Descending Houston Center
Fri 07:24:03 PM 30.1067 -95.2247 272° West 294 338 6,000 -627 Descending Houston Center
Fri 07:24:32 PM 30.1061 -95.2681 269° West 282 325 6,000  Level Houston Center
Fri 07:25:05 PM 30.1078 -95.3139 272° West 284 327 6,000 -98 Level Houston Center
Fri 07:25:33 PM 30.1061 -95.3622 268° West 286 329 5,900 -857 Descending Houston Center
Fri 07:26:08 PM 30.1064 -95.4042 270° West 283 326 5,100 -1,684 Descending Houston Center
Fri 07:26:30 PM 30.1072 -95.4419 271° West 266 306 4,300 -1,839 Descending Houston Center
Fri 07:27:10 PM 30.1072 -95.4894 270° West 272 313 3,200 -1,182 Descending Houston Center
Fri 07:27:36 PM 30.0986 -95.5347 258° West 242 278 3,000 -194 Descending Houston Center
Fri 07:28:12 PM 30.0792 -95.5417 197° South 244 281 3,000  Level Houston Center
Fri 07:28:38 PM 30.0517 -95.5258 154° Southeast 188 216 3,000 -194 Level Houston Center
Fri 07:29:14 PM 30.0342 -95.4969 125° Southeast 204 235 2,800 -545 Descending Houston Center
Fri 07:29:33 PM 30.0247 -95.4831 128° Southeast 187 215 2,500 -1,116 Descending Houston Center
Fri 07:30:40 PM 30.0064 -95.4203 109° East 165 190 1,200 -1,029 Descending Houston Center
Fri 07:31:18 PM 30.0081 -95.3972 85° East 166 191 700 -689 Descending Houston Center
Fri 07:31:41 PM 30.0069 -95.3792 94° East 116 133 500 -290 Descending Houston Center
Fri 07:32:20 PM 30.0061 -95.3533 92° East 146 168 400 -154 Descending Houston Center

Login

Don't have an account? Register now (free) for customized features, flight alerts, and more!